Time;durP1;ratioP1;P1;durP2;ratioP2;P2;SDS_P1;SDS_P2;PMS_P1;PMS_P2;Temp;Humidity;BMP_temperature;BMP_pressure;BME280_temperature;BME280_humidity;BME280_pressure;Samples;Min_cycle;Max_cycle;Signal;HPM_P1;HPM_P2
2022/09/25 00:02:55;;;;;;;;;;;;;;;11.03;91.92;100515.56;10578777;28;20316;-76
2022/09/25 00:07:58;;;;;;;;;;;;;;;11.08;91.94;100516.38;10578821;28;19971;-75
2022/09/25 00:13:02;;;;;;;;;;;;;;;11.03;92.52;100505.16;10579327;28;20415;-76
2022/09/25 00:18:05;;;;;;;;;;;;;;;10.99;92.20;100511.25;10578816;28;20364;-74
2022/09/25 00:23:08;;;;;;;;;;;;;;;10.98;91.78;100506.97;10546367;28;19934;-71
2022/09/25 00:28:13;;;;;;;;;;;;;;;10.92;91.13;100508.75;10538422;28;20027;-69
2022/09/25 00:33:20;;;;;;;;;;;;;;;10.83;91.09;100514.03;10537484;28;20428;-69
2022/09/25 00:38:23;;;;;;;;;;;;;;;10.75;91.66;100505.44;10536412;28;19927;-75
2022/09/25 00:43:36;;;;;;;;;;;;;;;10.87;91.31;100500.16;10536103;28;19928;-73
2022/09/25 00:48:45;;;;;;;;;;;;;;;10.79;91.36;100501.94;10536570;28;19924;-72
2022/09/25 00:53:48;;;;;;;;;;;;;;;10.80;91.21;100490.69;10537477;28;20235;-72
2022/09/25 00:58:53;;;;;;;;;;;;;;;10.73;91.18;100497.69;10544612;28;19928;-72
2022/09/25 01:03:56;;;;;;;;;;;;;;;10.62;91.75;100488.25;10543198;28;19924;-74
2022/09/25 01:08:59;;;;;;;;;;;;;;;10.47;92.79;100494.44;10542824;28;19928;-72
2022/09/25 01:14:05;;;;;;;;;;;;;;;10.38;93.01;100492.75;10546558;28;20011;-74
2022/09/25 01:19:15;;;;;;;;;;;;;;;10.54;92.33;100495.22;10585559;28;19944;-71
2022/09/25 01:24:24;;;;;;;;;;;;;;;10.56;92.24;100491.75;10584828;28;20420;-71
2022/09/25 01:29:31;;;;;;;;;;;;;;;10.55;91.63;100487.44;10584328;28;20385;-74
2022/09/25 01:34:39;;;;;;;;;;;;;;;10.46;92.26;100492.69;10584217;28;19934;-73
2022/09/25 01:39:45;;;;;;;;;;;;;;;10.48;92.02;100485.75;10584066;28;19927;-73
2022/09/25 01:44:53;;;;;;;;;;;;;;;10.40;91.98;100484.97;10584718;28;19927;-71
2022/09/25 01:49:59;;;;;;;;;;;;;;;10.37;91.92;100478.06;10584311;28;19924;-77
2022/09/25 01:55:07;;;;;;;;;;;;;;;10.37;92.08;100479.81;10583993;28;20313;-75
2022/09/25 02:00:14;;;;;;;;;;;;;;;10.39;92.13;100471.13;10585215;28;19934;-73
2022/09/25 02:05:19;;;;;;;;;;;;;;;10.38;92.13;100473.72;10583412;28;19939;-75
2022/09/25 02:10:25;;;;;;;;;;;;;;;10.21;92.25;100473.88;10583391;28;20018;-73
2022/09/25 02:15:31;;;;;;;;;;;;;;;10.22;92.55;100474.72;10567244;28;19934;-71
2022/09/25 02:20:35;;;;;;;;;;;;;;;10.21;92.28;100475.59;10540736;28;19928;-74
2022/09/25 02:25:40;;;;;;;;;;;;;;;10.20;91.79;100469.53;10542546;28;19924;-74
2022/09/25 02:30:47;;;;;;;;;;;;;;;10.16;91.84;100457.44;10546697;28;19943;-75
2022/09/25 02:35:50;;;;;;;;;;;;;;;10.11;91.62;100455.78;10582895;28;20015;-71
2022/09/25 02:40:56;;;;;;;;;;;;;;;9.91;92.11;100455.88;10582267;28;19928;-70
2022/09/25 02:46:05;;;;;;;;;;;;;;;9.95;91.80;100449.81;10581517;28;19923;-71
2022/09/25 02:51:10;;;;;;;;;;;;;;;9.93;91.54;100453.25;10581097;28;19928;-72
2022/09/25 02:56:15;;;;;;;;;;;;;;;9.92;92.48;100451.53;10580782;28;19923;-72
2022/09/25 03:01:22;;;;;;;;;;;;;;;9.94;91.61;100444.63;10581120;28;19927;-72
2022/09/25 03:06:26;;;;;;;;;;;;;;;9.91;92.06;100435.13;10582378;28;19946;-71
2022/09/25 03:11:29;;;;;;;;;;;;;;;9.89;91.92;100436.84;10585467;28;20371;-77
2022/09/25 03:16:38;;;;;;;;;;;;;;;9.62;93.34;100443.94;10585844;28;20242;-70
2022/09/25 03:21:41;;;;;;;;;;;;;;;9.77;92.96;100439.53;10573827;28;20014;-78
2022/09/25 03:26:44;;;;;;;;;;;;;;;9.75;92.73;100435.25;10209098;28;10000323;-75
2022/09/25 03:31:48;;;;;;;;;;;;;;;9.78;92.99;100437.81;10580749;28;20006;-77
2022/09/25 03:36:51;;;;;;;;;;;;;;;9.91;92.79;100435.13;10579794;28;20554;-73
2022/09/25 03:41:54;;;;;;;;;;;;;;;9.87;93.08;100437.75;10579927;28;19924;-76
2022/09/25 03:46:59;;;;;;;;;;;;;;;9.87;93.31;100441.19;10579472;28;20409;-75
2022/09/25 03:52:02;;;;;;;;;;;;;;;9.82;93.00;100445.53;10583427;28;19967;-72
2022/09/25 03:57:05;;;;;;;;;;;;;;;9.78;92.71;100442.97;10584901;28;19931;-71
2022/09/25 04:02:10;;;;;;;;;;;;;;;9.72;92.87;100440.41;10585349;28;19924;-72
2022/09/25 04:07:12;;;;;;;;;;;;;;;9.59;94.33;100442.22;10584784;28;20022;-72
2022/09/25 04:12:15;;;;;;;;;;;;;;;9.65;93.74;100446.50;10584927;28;19970;-73
2022/09/25 04:17:20;;;;;;;;;;;;;;;9.72;93.53;100448.19;10584628;28;19928;-72
2022/09/25 04:22:23;;;;;;;;;;;;;;;9.73;93.54;100443.03;10584816;28;20263;-75
2022/09/25 04:27:26;;;;;;;;;;;;;;;9.74;93.37;100439.56;10584730;28;20412;-72
2022/09/25 04:37:51;;;;;;;;;;;;;;;9.67;93.17;100445.63;10592388;28;20066;-73
2022/09/25 04:42:57;;;;;;;;;;;;;;;9.56;93.62;100434.44;10549716;28;20242;-76
2022/09/25 04:48:02;;;;;;;;;;;;;;;9.53;94.36;100428.41;10544555;28;20023;-76
2022/09/25 04:53:05;;;;;;;;;;;;;;;9.56;94.82;100428.44;10545455;28;20260;-76
2022/09/25 04:58:09;;;;;;;;;;;;;;;9.70;94.43;100431.81;10544885;28;19974;-73
2022/09/25 05:03:14;;;;;;;;;;;;;;;9.74;95.15;100428.31;10544000;28;19979;-76
2022/09/25 05:08:17;;;;;;;;;;;;;;;9.81;95.91;100423.09;10543097;28;19962;-74
2022/09/25 05:13:20;;;;;;;;;;;;;;;9.87;95.59;100417.84;10542844;28;20622;-75
2022/09/25 05:18:25;;;;;;;;;;;;;;;9.92;95.40;100425.63;10542631;28;19924;-75
2022/09/25 05:23:28;;;;;;;;;;;;;;;9.82;95.20;100442.09;10542471;28;19924;-76
2022/09/25 05:28:32;;;;;;;;;;;;;;;9.78;96.13;100437.81;10542745;28;20640;-74
2022/09/25 05:33:37;;;;;;;;;;;;;;;9.88;95.26;100442.06;10542073;28;20348;-73
2022/09/25 05:38:47;;;;;;;;;;;;;;;9.95;94.75;100434.25;10458644;28;10000122;-73
2022/09/25 05:43:50;;;;;;;;;;;;;;;9.91;95.01;100455.88;10566922;28;19943;-76
2022/09/25 05:48:55;;;;;;;;;;;;;;;9.94;94.76;100449.81;10528453;28;19934;-76
2022/09/25 05:53:59;;;;;;;;;;;;;;;9.93;94.97;100454.13;10541662;28;19928;-73
2022/09/25 05:59:02;;;;;;;;;;;;;;;10.00;95.00;100457.53;10541415;28;19928;-73
2022/09/25 06:04:06;;;;;;;;;;;;;;;10.05;94.81;100459.25;10540787;28;19968;-75
2022/09/25 06:09:09;;;;;;;;;;;;;;;10.06;95.08;100463.53;10541325;28;19928;-76
2022/09/25 06:14:12;;;;;;;;;;;;;;;9.93;94.64;100463.63;10540364;28;19924;-74
2022/09/25 06:19:17;;;;;;;;;;;;;;;9.76;95.32;100462.84;10540405;28;20022;-76
2022/09/25 06:24:20;;;;;;;;;;;;;;;9.80;95.94;100454.22;10542036;28;19928;-71
2022/09/25 06:29:23;;;;;;;;;;;;;;;10.06;95.77;100449.72;10541755;28;20023;-72
2022/09/25 06:34:27;;;;;;;;;;;;;;;10.19;96.30;100451.38;10540142;28;20027;-74
2022/09/25 06:39:32;;;;;;;;;;;;;;;10.37;95.26;100440.91;10546610;28;19934;-67
2022/09/25 06:44:35;;;;;;;;;;;;;;;10.42;94.94;100450.34;10581165;28;19993;-75
2022/09/25 06:49:39;;;;;;;;;;;;;;;10.55;95.42;100448.50;10581013;28;19930;-75
2022/09/25 06:54:42;;;;;;;;;;;;;;;10.58;95.91;100443.28;10580463;28;19934;-69
2022/09/25 06:59:46;;;;;;;;;;;;;;;10.69;96.28;100438.88;10581029;28;20019;-74
2022/09/25 07:04:51;;;;;;;;;;;;;;;10.77;96.12;100444.00;10580683;28;20055;-78
2022/09/25 07:09:54;;;;;;;;;;;;;;;10.95;95.56;100436.00;10581137;28;19938;-74
2022/09/25 07:14:57;;;;;;;;;;;;;;;10.98;95.86;100423.84;10580545;28;19931;-66
2022/09/25 07:20:01;;;;;;;;;;;;;;;11.03;95.21;100424.66;10583364;28;20019;-71
2022/09/25 07:25:05;;;;;;;;;;;;;;;11.05;96.42;100425.50;10585097;28;20355;-70
2022/09/25 07:30:09;;;;;;;;;;;;;;;11.22;95.79;100427.91;10586425;28;19935;-78
2022/09/25 07:35:13;;;;;;;;;;;;;;;11.25;95.22;100426.13;10585557;28;19924;-78
2022/09/25 07:40:16;;;;;;;;;;;;;;;11.45;95.35;100424.16;10585347;28;19928;-77
2022/09/25 07:45:20;;;;;;;;;;;;;;;11.60;95.02;100426.56;10585243;28;20014;-71
2022/09/25 07:50:24;;;;;;;;;;;;;;;11.68;94.90;100425.63;10585169;28;19924;-81
2022/09/25 07:55:28;;;;;;;;;;;;;;;11.82;94.16;100414.16;10585334;28;20015;-76
2022/09/25 08:00:31;;;;;;;;;;;;;;;11.97;93.31;100413.94;10584980;28;19970;-76
2022/09/25 08:05:36;;;;;;;;;;;;;;;12.10;93.11;100414.59;10589697;28;20007;-79
2022/09/25 08:10:39;;;;;;;;;;;;;;;12.22;92.92;100417.00;10593574;28;19924;-76
2022/09/25 08:15:42;;;;;;;;;;;;;;;12.47;91.89;100416.63;10593261;28;19924;-77
2022/09/25 08:20:46;;;;;;;;;;;;;;;12.55;91.51;100409.53;10593264;28;19923;-76
2022/09/25 08:25:49;;;;;;;;;;;;;;;12.73;90.80;100416.16;10592980;28;20007;-75
2022/09/25 08:30:53;;;;;;;;;;;;;;;12.82;89.99;100423.81;10221662;28;9999987;-76
2022/09/25 08:35:58;;;;;;;;;;;;;;;13.04;89.79;100414.72;10544672;28;19934;-76
2022/09/25 08:41:03;;;;;;;;;;;;;;;13.18;88.97;100397.09;10544687;28;19935;-76
2022/09/25 08:51:38;;;;;;;;;;;;;;;13.45;88.27;100385.22;10545672;28;20363;-75
2022/09/25 08:56:42;;;;;;;;;;;;;;;13.64;87.79;100389.13;10547081;28;19928;-78
2022/09/25 09:01:48;;;;;;;;;;;;;;;13.87;87.31;100379.06;10547884;28;20353;-76
2022/09/25 09:06:56;;;;;;;;;;;;;;;14.04;87.08;100365.59;10549026;28;20398;-75
2022/09/25 09:12:21;;;;;;;;;;;;;;;14.24;87.21;100358.13;10548987;28;20302;-75
2022/09/25 09:17:26;;;;;;;;;;;;;;;14.43;86.39;100359.41;10548593;28;19924;-77
2022/09/25 09:22:36;;;;;;;;;;;;;;;14.63;85.11;100342.31;10548950;28;19939;-76
2022/09/25 09:27:50;;;;;;;;;;;;;;;14.85;83.29;100343.47;10548892;28;19935;-76
2022/09/25 09:33:07;;;;;;;;;;;;;;;15.15;82.63;100333.91;10548706;28;19959;-77
2022/09/25 09:38:17;;;;;;;;;;;;;;;15.53;81.43;100335.41;10548026;28;20263;-76
2022/09/25 09:43:28;;;;;;;;;;;;;;;15.83;79.15;100323.97;10547667;28;19936;-75
2022/09/25 09:48:33;;;;;;;;;;;;;;;16.19;77.81;100330.63;10548047;28;19924;-76
2022/09/25 09:53:39;;;;;;;;;;;;;;;16.65;75.90;100309.00;10547844;28;19951;-77
2022/09/25 09:58:46;;;;;;;;;;;;;;;17.05;74.53;100298.78;10547835;28;20359;-77
2022/09/25 10:03:52;;;;;;;;;;;;;;;17.43;72.97;100282.41;10546697;28;20447;-75
2022/09/25 10:08:57;;;;;;;;;;;;;;;17.68;72.14;100270.06;10546512;28;19930;-77
2022/09/25 10:14:03;;;;;;;;;;;;;;;17.98;70.57;100265.31;10546730;28;20364;-76
2022/09/25 10:19:10;;;;;;;;;;;;;;;18.36;68.86;100257.50;10547652;28;20232;-77
2022/09/25 10:24:40;;;;;;;;;;;;;;;18.68;68.02;100250.00;10546161;28;20015;-78
2022/09/25 10:29:43;;;;;;;;;;;;;;;19.11;66.50;100255.03;10545042;28;20010;-77
2022/09/25 10:34:52;;;;;;;;;;;;;;;19.38;64.65;100245.84;10193343;28;10000180;-73
2022/09/25 10:40:02;;;;;;;;;;;;;;;19.77;63.42;100246.56;10539025;28;20498;-73
2022/09/25 10:45:35;;;;;;;;;;;;;;;19.83;61.12;100240.97;10539539;28;20015;-74
2022/09/25 10:50:38;;;;;;;;;;;;;;;20.15;58.22;100236.72;10461995;28;20011;-73
2022/09/25 10:55:45;;;;;;;;;;;;;;;20.55;56.99;100231.97;10538539;28;19935;-72
2022/09/25 11:00:53;;;;;;;;;;;;;;;20.90;55.18;100227.44;10538730;28;19928;-71
2022/09/25 11:05:57;;;;;;;;;;;;;;;21.28;53.40;100215.66;10538846;28;19934;-73
2022/09/25 11:11:02;;;;;;;;;;;;;;;21.84;52.49;100209.81;10537953;28;19977;-75
2022/09/25 11:16:08;;;;;;;;;;;;;;;22.13;51.59;100198.38;10538046;28;20340;-73
2022/09/25 11:21:18;;;;;;;;;;;;;;;22.41;49.79;100190.47;10537816;28;19932;-72
2022/09/25 11:26:26;;;;;;;;;;;;;;;22.95;49.14;100188.00;10537535;28;19954;-74
2022/09/25 11:31:34;;;;;;;;;;;;;;;23.25;47.24;100180.72;10537532;28;19924;-77
2022/09/25 11:36:41;;;;;;;;;;;;;;;23.43;45.45;100180.44;10560445;28;20255;-73
2022/09/25 11:41:48;;;;;;;;;;;;;;;23.84;45.06;100167.06;10581392;28;19923;-74
2022/09/25 11:46:55;;;;;;;;;;;;;;;24.06;43.80;100158.53;10581769;28;19989;-74
2022/09/25 11:52:18;;;;;;;;;;;;;;;24.18;43.84;100169.13;10580066;28;19938;-74
2022/09/25 11:57:26;;;;;;;;;;;;;;;24.40;43.32;100165.88;10579954;28;20559;-73
2022/09/25 12:02:41;;;;;;;;;;;;;;;24.52;43.18;100157.03;10572205;28;20373;-77
2022/09/25 12:07:51;;;;;;;;;;;;;;;24.96;43.35;100152.94;10536436;28;20032;-73
2022/09/25 12:12:59;;;;;;;;;;;;;;;24.57;42.80;100152.25;10536539;28;19975;-75
2022/09/25 12:18:07;;;;;;;;;;;;;;;23.20;45.37;100151.03;10538239;28;19954;-72
2022/09/25 12:23:15;;;;;;;;;;;;;;;21.97;47.82;100147.34;10542102;28;19934;-74
2022/09/25 12:28:24;;;;;;;;;;;;;;;23.70;45.21;100138.84;10542854;28;20015;-76
2022/09/25 12:33:33;;;;;;;;;;;;;;;24.60;44.15;100125.47;10542164;28;20305;-77
2022/09/25 12:38:42;;;;;;;;;;;;;;;24.53;43.56;100117.13;10542634;28;20014;-75
2022/09/25 12:43:50;;;;;;;;;;;;;;;24.28;43.53;100117.13;10541871;28;19934;-74
2022/09/25 12:48:56;;;;;;;;;;;;;;;24.54;42.43;100113.50;10541559;28;20317;-73
2022/09/25 12:54:00;;;;;;;;;;;;;;;24.44;42.29;100107.16;10549675;28;20011;-78
2022/09/25 12:59:10;;;;;;;;;;;;;;;24.45;42.20;100103.56;10549250;28;19963;-77
2022/09/25 13:04:22;;;;;;;;;;;;;;;24.40;42.06;100107.47;10549182;28;19930;-75
2022/09/25 13:09:30;;;;;;;;;;;;;;;23.77;42.91;100092.41;10549053;28;19924;-77
2022/09/25 13:14:38;;;;;;;;;;;;;;;23.44;43.55;100091.19;10549003;28;19924;-75
2022/09/25 13:19:42;;;;;;;;;;;;;;;23.27;44.06;100088.78;10548529;28;19928;-73
2022/09/25 13:24:46;;;;;;;;;;;;;;;22.02;46.45;100100.31;10192266;28;10000084;-71
2022/09/25 13:29:56;;;;;;;;;;;;;;;21.11;48.02;100096.97;10542770;28;20011;-68
2022/09/25 13:35:01;;;;;;;;;;;;;;;20.65;48.94;100108.38;10542215;28;19936;-70
2022/09/25 13:45:38;;;;;;;;;;;;;;;19.89;51.87;100097.56;10541649;28;19928;-70
2022/09/25 13:50:42;;;;;;;;;;;;;;;19.72;52.68;100095.81;10541497;28;19961;-71
2022/09/25 13:56:00;;;;;;;;;;;;;;;19.57;53.82;100091.31;10542606;28;19924;-69
2022/09/25 14:01:14;;;;;;;;;;;;;;;19.95;53.56;100087.56;10539039;28;20018;-67
2022/09/25 14:06:20;;;;;;;;;;;;;;;19.62;55.99;100091.97;10541594;28;19934;-67
2022/09/25 14:11:25;;;;;;;;;;;;;;;19.43;55.57;100084.13;10541140;28;19950;-68
2022/09/25 14:16:31;;;;;;;;;;;;;;;19.21;56.43;100082.59;10540902;28;19924;-64
2022/09/25 14:21:35;;;;;;;;;;;;;;;19.11;56.90;100086.63;10539832;28;19977;-68
2022/09/25 14:26:43;;;;;;;;;;;;;;;18.99;57.52;100084.59;10539806;28;19928;-67
2022/09/25 14:31:54;;;;;;;;;;;;;;;18.78;59.60;100083.00;10539534;28;20246;-72
2022/09/25 14:37:04;;;;;;;;;;;;;;;18.60;60.30;100066.34;10539392;28;19946;-70
2022/09/25 14:42:22;;;;;;;;;;;;;;;18.56;59.98;100066.53;10539577;28;20023;-70
2022/09/25 14:47:31;;;;;;;;;;;;;;;18.41;60.34;100057.63;10538053;28;21934;-68
2022/09/25 14:52:36;;;;;;;;;;;;;;;18.36;61.36;100055.16;10538689;28;20475;-69
2022/09/25 14:57:39;;;;;;;;;;;;;;;18.32;62.33;100058.00;10538749;28;20427;-64
2022/09/25 15:02:45;;;;;;;;;;;;;;;18.28;63.01;100046.78;10538740;28;19946;-68
2022/09/25 15:07:48;;;;;;;;;;;;;;;18.24;64.36;100047.84;10539175;28;19928;-65
2022/09/25 15:12:52;;;;;;;;;;;;;;;18.22;64.80;100046.22;10538373;28;20463;-66
2022/09/25 15:17:58;;;;;;;;;;;;;;;18.13;64.65;100042.25;10538040;28;19928;-66
2022/09/25 15:23:02;;;;;;;;;;;;;;;18.06;65.03;100043.44;10553708;28;19928;-69
2022/09/25 15:28:05;;;;;;;;;;;;;;;17.98;65.90;100042.91;10581315;28;20025;-66
2022/09/25 15:33:19;;;;;;;;;;;;;;;17.91;67.22;100041.47;10581776;28;20018;-67
2022/09/25 15:38:28;;;;;;;;;;;;;;;17.78;68.35;100042.09;10580656;28;19928;-67
2022/09/25 15:43:31;;;;;;;;;;;;;;;17.72;69.49;100045.88;10579966;28;20328;-67
2022/09/25 15:48:37;;;;;;;;;;;;;;;17.63;69.66;100032.28;10579838;28;20026;-79
2022/09/25 15:53:43;;;;;;;;;;;;;;;17.55;70.15;100035.25;10579138;28;20262;-79
2022/09/25 15:58:47;;;;;;;;;;;;;;;17.46;71.29;100030.41;10579604;28;19924;-76
2022/09/25 16:09:20;;;;;;;;;;;;;;;17.32;72.17;100024.88;10578840;28;19932;-80
2022/09/25 16:14:28;;;;;;;;;;;;;;;17.24;73.47;100021.69;10578908;28;19934;-78
2022/09/25 16:19:33;;;;;;;;;;;;;;;17.17;74.75;100028.97;10578418;28;19936;-77
2022/09/25 16:24:36;;;;;;;;;;;;;;;17.12;76.25;100019.59;10550513;28;19942;-77
2022/09/25 16:29:44;;;;;;;;;;;;;;;17.02;76.80;100015.66;10545095;28;19928;-76
2022/09/25 16:34:54;;;;;;;;;;;;;;;16.96;77.80;100010.69;10544631;28;19931;-77
2022/09/25 16:40:18;;;;;;;;;;;;;;;16.89;78.78;100002.22;10544995;28;20427;-77
2022/09/25 16:45:24;;;;;;;;;;;;;;;16.83;79.31;100006.84;10544733;28;19943;-78
2022/09/25 16:50:38;;;;;;;;;;;;;;;16.76;79.96;100008.00;10543864;28;19962;-76
2022/09/25 16:55:46;;;;;;;;;;;;;;;16.68;80.12;100012.72;10544430;28;20026;-76
2022/09/25 17:00:49;;;;;;;;;;;;;;;16.56;81.13;100011.47;10545532;28;20313;-66
2022/09/25 17:05:53;;;;;;;;;;;;;;;16.42;82.08;100005.88;10544044;28;19924;-66
2022/09/25 17:10:56;;;;;;;;;;;;;;;16.35;83.04;100011.41;10543704;28;19930;-67
2022/09/25 17:15:59;;;;;;;;;;;;;;;16.27;82.92;100013.47;10543429;28;19928;-66
2022/09/25 17:21:07;;;;;;;;;;;;;;;16.23;83.09;100014.50;10542692;28;20356;-66
2022/09/25 17:26:15;;;;;;;;;;;;;;;16.22;83.91;100023.28;10584294;28;20305;-65
2022/09/25 17:31:20;;;;;;;;;;;;;;;16.16;84.09;100024.34;10584272;28;19934;-65
2022/09/25 17:36:25;;;;;;;;;;;;;;;16.16;84.41;100022.59;10584602;28;19991;-64
2022/09/25 17:41:30;;;;;;;;;;;;;;;16.11;84.64;100015.81;10584152;28;19935;-66
2022/09/25 17:46:34;;;;;;;;;;;;;;;16.04;84.83;100009.97;10583409;28;20365;-66
2022/09/25 17:51:39;;;;;;;;;;;;;;;16.07;84.96;100002.00;10583501;28;19931;-78
2022/09/25 17:56:44;;;;;;;;;;;;;;;16.09;85.21;100002.78;10583126;28;19963;-76
2022/09/25 18:01:47;;;;;;;;;;;;;;;16.09;85.56;99999.31;10583485;28;19927;-76
2022/09/25 18:06:52;;;;;;;;;;;;;;;16.10;86.23;99986.16;10585064;28;20018;-75
2022/09/25 18:11:55;;;;;;;;;;;;;;;16.01;87.21;99986.50;10583785;28;20391;-77
2022/09/25 18:16:58;;;;;;;;;;;;;;;15.97;87.87;99995.41;10582169;28;19934;-75
2022/09/25 18:22:19;;;;;;;;;;;;;;;15.95;88.19;99989.38;10575033;28;19981;-79
2022/09/25 18:27:23;;;;;;;;;;;;;;;15.92;88.16;99986.88;10539762;28;19946;-75
2022/09/25 18:32:26;;;;;;;;;;;;;;;15.91;88.42;99985.16;10541019;28;20021;-74
2022/09/25 18:37:30;;;;;;;;;;;;;;;15.91;88.67;99986.94;10541879;28;20347;-76
2022/09/25 18:42:33;;;;;;;;;;;;;;;15.87;88.73;99983.59;10540776;28;20008;-77
2022/09/25 18:47:37;;;;;;;;;;;;;;;15.86;87.98;99986.22;10539180;28;20220;-76
2022/09/25 18:52:41;;;;;;;;;;;;;;;15.80;87.59;99981.25;10538623;28;19932;-77
2022/09/25 18:57:44;;;;;;;;;;;;;;;15.78;88.46;99980.44;10538515;28;20060;-74
2022/09/25 19:02:47;;;;;;;;;;;;;;;15.72;88.47;99973.66;10538026;28;19924;-75
2022/09/25 19:07:54;;;;;;;;;;;;;;;15.72;89.47;99985.91;10538108;28;20032;-75
2022/09/25 19:12:57;;;;;;;;;;;;;;;15.66;90.32;99981.75;10538364;28;20275;-75
2022/09/25 19:18:00;;;;;;;;;;;;;;;15.63;90.26;99978.41;10537956;28;19924;-75
2022/09/25 19:23:06;;;;;;;;;;;;;;;15.59;90.51;99975.03;10553264;28;19960;-74
2022/09/25 19:28:09;;;;;;;;;;;;;;;15.59;90.93;99968.94;10579929;28;19927;-74
2022/09/25 19:33:13;;;;;;;;;;;;;;;15.57;91.59;99971.63;10579847;28;19987;-75
2022/09/25 19:38:17;;;;;;;;;;;;;;;15.54;91.59;99966.50;10579241;28;19928;-74
2022/09/25 19:43:20;;;;;;;;;;;;;;;15.51;91.91;99956.16;10579467;28;20046;-73
2022/09/25 19:48:24;;;;;;;;;;;;;;;15.46;92.60;99955.44;10579201;28;19923;-75
2022/09/25 19:53:28;;;;;;;;;;;;;;;15.43;93.05;99957.34;10578784;28;19936;-74
2022/09/25 19:58:34;;;;;;;;;;;;;;;15.33;92.42;99961.16;10578536;28;19928;-77
2022/09/25 20:03:37;;;;;;;;;;;;;;;15.17;93.03;99954.78;10585353;28;19962;-74
2022/09/25 20:08:41;;;;;;;;;;;;;;;15.16;93.17;99951.28;10580944;28;19935;-75
2022/09/25 20:13:44;;;;;;;;;;;;;;;15.08;93.62;99942.88;10580949;28;19967;-76
2022/09/25 20:18:48;;;;;;;;;;;;;;;15.02;93.78;99950.91;10579854;28;19923;-75
2022/09/25 20:23:53;;;;;;;;;;;;;;;14.91;93.70;99956.50;10564303;28;19928;-75
2022/09/25 20:28:57;;;;;;;;;;;;;;;14.79;93.90;99951.69;10578371;28;19958;-75
2022/09/25 20:34:01;;;;;;;;;;;;;;;14.72;95.54;99954.59;10578556;28;19924;-74
2022/09/25 20:39:06;;;;;;;;;;;;;;;14.71;95.81;99955.47;10577928;28;20038;-75
2022/09/25 20:44:09;;;;;;;;;;;;;;;14.70;96.14;99956.41;10578544;28;20331;-77
2022/09/25 20:49:12;;;;;;;;;;;;;;;14.58;97.24;99957.63;10577809;28;20634;-75
2022/09/25 20:54:19;;;;;;;;;;;;;;;14.56;96.95;99954.25;10577606;28;20023;-74
2022/09/25 20:59:22;;;;;;;;;;;;;;;14.45;97.45;99947.63;10579360;28;19946;-74
2022/09/25 21:04:26;;;;;;;;;;;;;;;14.44;97.76;99948.56;10582130;28;19924;-73
2022/09/25 21:09:30;;;;;;;;;;;;;;;14.37;99.01;99954.88;10583436;28;19934;-75
2022/09/25 21:14:34;;;;;;;;;;;;;;;14.35;99.59;99951.44;10590702;28;20372;-76
2022/09/25 21:19:37;;;;;;;;;;;;;;;14.32;99.81;99952.41;10590625;28;20011;-73
2022/09/25 21:24:42;;;;;;;;;;;;;;;14.25;99.95;99957.84;10220301;28;10000288;-74
2022/09/25 21:29:45;;;;;;;;;;;;;;;14.24;99.49;99958.72;10541881;28;19934;-74
2022/09/25 21:34:48;;;;;;;;;;;;;;;14.15;100.00;99956.41;10542101;28;19927;-75
2022/09/25 21:39:52;;;;;;;;;;;;;;;14.13;100.00;99945.16;10541758;28;19927;-75
2022/09/25 21:44:55;;;;;;;;;;;;;;;14.08;100.00;99944.47;10541313;28;20336;-75
2022/09/25 21:49:58;;;;;;;;;;;;;;;14.04;100.00;99937.63;10543604;28;19981;-71
2022/09/25 21:55:03;;;;;;;;;;;;;;;14.00;100.00;99934.25;10542056;28;19967;-73
2022/09/25 22:00:06;;;;;;;;;;;;;;;13.87;100.00;99925.09;10541133;28;20019;-72
2022/09/25 22:05:10;;;;;;;;;;;;;;;13.74;100.00;99932.44;10541037;28;19971;-71
2022/09/25 22:10:15;;;;;;;;;;;;;;;13.59;100.00;99919.00;10541617;28;19935;-75
2022/09/25 22:15:19;;;;;;;;;;;;;;;13.49;100.00;99909.72;10540899;28;20284;-72
2022/09/25 22:20:22;;;;;;;;;;;;;;;13.51;100.00;99908.78;10542074;28;20031;-74
2022/09/25 22:25:26;;;;;;;;;;;;;;;13.41;100.00;99902.13;10560713;28;19938;-72
2022/09/25 22:30:29;;;;;;;;;;;;;;;13.37;100.00;99902.25;10582362;28;19927;-71
2022/09/25 22:35:32;;;;;;;;;;;;;;;13.25;100.00;99903.47;10582230;28;19923;-72
2022/09/25 22:40:37;;;;;;;;;;;;;;;13.24;100.00;99904.34;10581884;28;19924;-72
2022/09/25 22:45:47;;;;;;;;;;;;;;;13.25;100.00;99903.47;10582272;28;19927;-72
2022/09/25 22:50:54;;;;;;;;;;;;;;;13.22;100.00;99892.28;10581118;28;19927;-73
2022/09/25 22:56:08;;;;;;;;;;;;;;;13.16;100.00;99885.50;10581028;28;20030;-72
2022/09/25 23:01:13;;;;;;;;;;;;;;;13.15;100.00;99878.56;10580862;28;19927;-74
2022/09/25 23:06:16;;;;;;;;;;;;;;;13.13;100.00;99879.50;10580202;28;20383;-74
2022/09/25 23:11:22;;;;;;;;;;;;;;;13.03;100.00;99873.69;10580515;28;20353;-73
2022/09/25 23:16:25;;;;;;;;;;;;;;;12.97;100.00;99859.94;10579907;28;19935;-70
2022/09/25 23:21:29;;;;;;;;;;;;;;;12.97;100.00;99857.34;10580031;28;20023;-76
2022/09/25 23:26:33;;;;;;;;;;;;;;;12.98;100.00;99862.50;10549612;28;20370;-72
2022/09/25 23:31:37;;;;;;;;;;;;;;;12.92;100.00;99854.88;10538261;28;20019;-76
2022/09/25 23:36:40;;;;;;;;;;;;;;;12.88;100.00;99857.59;10537729;28;19939;-73
2022/09/25 23:41:44;;;;;;;;;;;;;;;12.88;100.00;99852.38;10537916;28;19924;-73
2022/09/25 23:46:47;;;;;;;;;;;;;;;12.88;100.00;99854.97;10537013;28;19932;-67
2022/09/25 23:51:50;;;;;;;;;;;;;;;12.67;100.00;99856.41;10536757;28;19940;-75
2022/09/25 23:56:55;;;;;;;;;;;;;;;12.62;100.00;99853.94;10537309;28;19928;-65
